Terminal Aerodrome Forecast
Issued by NWS

Home | Current Version | Previous Version | Text Only | Print | Product List | Glossary Off
Versions: 1 2 3 4 5 6 7 8 9 10 11 12 13 14

051
FTUS43 KMPX 132320
TAFAXN
TAF
KAXN 132320Z 1400/1424 15009KT P6SM BKN040
     FM140030 16011KT P6SM FEW050 SCT250
     FM140500 19010KT P6SM FEW250
     FM141000 22007KT P6SM FEW250
     FM141700 28005KT P6SM FEW250=

USA.gov is the U.S. government's official web portal to all federal, state and local government web resources and services.